sensor_id;sensor_type;location;lat;lon;timestamp;P1;durP1;ratioP1;P2;durP2;ratioP2
8596;SDS011;4336;49.310;8.646;2022-11-06T00:00:23;11.93;;;9.50;;
8596;SDS011;4336;49.310;8.646;2022-11-06T00:02:50;13.47;;;8.47;;
8596;SDS011;4336;49.310;8.646;2022-11-06T00:05:16;12.23;;;9.23;;
8596;SDS011;4336;49.310;8.646;2022-11-06T00:08:00;12.57;;;9.07;;
8596;SDS011;4336;49.310;8.646;2022-11-06T00:10:28;14.80;;;8.50;;
8596;SDS011;4336;49.310;8.646;2022-11-06T00:12:56;12.50;;;8.80;;
8596;SDS011;4336;49.310;8.646;2022-11-06T00:15:22;11.33;;;8.77;;
8596;SDS011;4336;49.310;8.646;2022-11-06T00:17:48;13.87;;;9.50;;
8596;SDS011;4336;49.310;8.646;2022-11-06T00:20:15;20.67;;;10.43;;
8596;SDS011;4336;49.310;8.646;2022-11-06T00:22:42;9.37;;;8.07;;
8596;SDS011;4336;49.310;8.646;2022-11-06T00:25:08;11.40;;;9.00;;
8596;SDS011;4336;49.310;8.646;2022-11-06T00:27:35;13.10;;;9.37;;
8596;SDS011;4336;49.310;8.646;2022-11-06T00:30:02;9.23;;;8.00;;
8596;SDS011;4336;49.310;8.646;2022-11-06T00:32:28;15.03;;;9.17;;
8596;SDS011;4336;49.310;8.646;2022-11-06T00:34:54;15.87;;;9.17;;
8596;SDS011;4336;49.310;8.646;2022-11-06T00:37:21;12.90;;;8.83;;
8596;SDS011;4336;49.310;8.646;2022-11-06T00:39:47;11.83;;;8.97;;
8596;SDS011;4336;49.310;8.646;2022-11-06T00:42:13;9.67;;;8.33;;
8596;SDS011;4336;49.310;8.646;2022-11-06T00:44:39;13.67;;;9.30;;
8596;SDS011;4336;49.310;8.646;2022-11-06T00:47:05;12.23;;;9.33;;
8596;SDS011;4336;49.310;8.646;2022-11-06T00:49:31;13.23;;;9.80;;
8596;SDS011;4336;49.310;8.646;2022-11-06T00:51:57;10.60;;;9.07;;
8596;SDS011;4336;49.310;8.646;2022-11-06T00:54:23;12.80;;;9.03;;
8596;SDS011;4336;49.310;8.646;2022-11-06T00:56:49;12.63;;;10.03;;
8596;SDS011;4336;49.310;8.646;2022-11-06T00:59:16;12.93;;;9.73;;
8596;SDS011;4336;49.310;8.646;2022-11-06T01:01:42;11.27;;;9.17;;
8596;SDS011;4336;49.310;8.646;2022-11-06T01:06:39;12.03;;;8.93;;
8596;SDS011;4336;49.310;8.646;2022-11-06T01:09:05;17.33;;;9.50;;
8596;SDS011;4336;49.310;8.646;2022-11-06T01:11:33;12.90;;;8.87;;
8596;SDS011;4336;49.310;8.646;2022-11-06T01:14:00;11.10;;;9.00;;
8596;SDS011;4336;49.310;8.646;2022-11-06T01:16:27;11.93;;;9.40;;
8596;SDS011;4336;49.310;8.646;2022-11-06T01:18:53;14.00;;;8.80;;
8596;SDS011;4336;49.310;8.646;2022-11-06T01:21:22;14.27;;;9.37;;
8596;SDS011;4336;49.310;8.646;2022-11-06T01:23:55;13.90;;;9.23;;
8596;SDS011;4336;49.310;8.646;2022-11-06T01:26:22;11.83;;;8.53;;
8596;SDS011;4336;49.310;8.646;2022-11-06T01:28:49;14.60;;;9.27;;
8596;SDS011;4336;49.310;8.646;2022-11-06T01:31:16;13.40;;;9.57;;
8596;SDS011;4336;49.310;8.646;2022-11-06T01:33:42;12.63;;;9.50;;
8596;SDS011;4336;49.310;8.646;2022-11-06T01:36:13;11.33;;;9.47;;
8596;SDS011;4336;49.310;8.646;2022-11-06T01:38:40;16.27;;;9.60;;
8596;SDS011;4336;49.310;8.646;2022-11-06T01:41:06;12.53;;;8.90;;
8596;SDS011;4336;49.310;8.646;2022-11-06T01:43:49;10.80;;;8.90;;
8596;SDS011;4336;49.310;8.646;2022-11-06T01:46:16;14.60;;;9.60;;
8596;SDS011;4336;49.310;8.646;2022-11-06T01:48:44;10.57;;;8.97;;
8596;SDS011;4336;49.310;8.646;2022-11-06T01:51:11;12.83;;;9.40;;
8596;SDS011;4336;49.310;8.646;2022-11-06T01:53:38;13.60;;;9.30;;
8596;SDS011;4336;49.310;8.646;2022-11-06T01:56:06;13.30;;;9.27;;
8596;SDS011;4336;49.310;8.646;2022-11-06T01:58:33;12.30;;;9.77;;
8596;SDS011;4336;49.310;8.646;2022-11-06T02:00:59;12.93;;;9.10;;
8596;SDS011;4336;49.310;8.646;2022-11-06T02:03:26;12.67;;;9.37;;
8596;SDS011;4336;49.310;8.646;2022-11-06T02:05:56;12.17;;;8.50;;
8596;SDS011;4336;49.310;8.646;2022-11-06T02:08:22;11.67;;;9.27;;
8596;SDS011;4336;49.310;8.646;2022-11-06T02:10:49;10.47;;;8.37;;
8596;SDS011;4336;49.310;8.646;2022-11-06T02:15:46;11.97;;;8.80;;
8596;SDS011;4336;49.310;8.646;2022-11-06T02:18:17;14.97;;;9.07;;
8596;SDS011;4336;49.310;8.646;2022-11-06T02:23:32;12.90;;;9.20;;
8596;SDS011;4336;49.310;8.646;2022-11-06T02:29:04;12.47;;;8.40;;
8596;SDS011;4336;49.310;8.646;2022-11-06T02:31:33;11.60;;;8.70;;
8596;SDS011;4336;49.310;8.646;2022-11-06T02:34:01;16.40;;;8.50;;
8596;SDS011;4336;49.310;8.646;2022-11-06T02:36:30;16.27;;;8.33;;
8596;SDS011;4336;49.310;8.646;2022-11-06T02:39:06;23.67;;;9.47;;
8596;SDS011;4336;49.310;8.646;2022-11-06T02:41:34;10.67;;;8.40;;
8596;SDS011;4336;49.310;8.646;2022-11-06T02:44:02;11.40;;;9.30;;
8596;SDS011;4336;49.310;8.646;2022-11-06T02:46:32;10.07;;;8.70;;
8596;SDS011;4336;49.310;8.646;2022-11-06T02:49:07;10.63;;;8.10;;
8596;SDS011;4336;49.310;8.646;2022-11-06T02:51:35;12.63;;;9.50;;
8596;SDS011;4336;49.310;8.646;2022-11-06T02:54:02;9.93;;;8.30;;
8596;SDS011;4336;49.310;8.646;2022-11-06T02:56:32;12.97;;;8.57;;
8596;SDS011;4336;49.310;8.646;2022-11-06T02:59:08;11.43;;;8.90;;
8596;SDS011;4336;49.310;8.646;2022-11-06T03:01:48;12.70;;;8.20;;
8596;SDS011;4336;49.310;8.646;2022-11-06T03:04:18;10.43;;;8.63;;
8596;SDS011;4336;49.310;8.646;2022-11-06T03:07:02;9.97;;;7.83;;
8596;SDS011;4336;49.310;8.646;2022-11-06T03:09:29;10.40;;;7.33;;
8596;SDS011;4336;49.310;8.646;2022-11-06T03:11:58;9.70;;;7.30;;
8596;SDS011;4336;49.310;8.646;2022-11-06T03:14:26;13.13;;;7.80;;
8596;SDS011;4336;49.310;8.646;2022-11-06T03:19:28;10.53;;;7.73;;
8596;SDS011;4336;49.310;8.646;2022-11-06T03:21:57;11.53;;;8.73;;
8596;SDS011;4336;49.310;8.646;2022-11-06T03:24:28;10.60;;;8.57;;
8596;SDS011;4336;49.310;8.646;2022-11-06T03:26:54;10.43;;;8.40;;
8596;SDS011;4336;49.310;8.646;2022-11-06T03:31:52;8.83;;;7.90;;
8596;SDS011;4336;49.310;8.646;2022-11-06T03:34:26;10.40;;;7.60;;
8596;SDS011;4336;49.310;8.646;2022-11-06T03:36:56;11.20;;;8.40;;
8596;SDS011;4336;49.310;8.646;2022-11-06T03:39:29;9.80;;;7.77;;
8596;SDS011;4336;49.310;8.646;2022-11-06T03:42:10;13.27;;;7.53;;
8596;SDS011;4336;49.310;8.646;2022-11-06T03:44:41;10.67;;;8.00;;
8596;SDS011;4336;49.310;8.646;2022-11-06T03:47:52;9.57;;;7.53;;
8596;SDS011;4336;49.310;8.646;2022-11-06T03:49:59;10.20;;;7.90;;
8596;SDS011;4336;49.310;8.646;2022-11-06T03:52:29;10.03;;;7.60;;
8596;SDS011;4336;49.310;8.646;2022-11-06T03:55:04;8.40;;;7.07;;
8596;SDS011;4336;49.310;8.646;2022-11-06T04:00:03;8.47;;;7.50;;
8596;SDS011;4336;49.310;8.646;2022-11-06T04:02:38;10.87;;;9.27;;
8596;SDS011;4336;49.310;8.646;2022-11-06T04:05:09;9.50;;;7.73;;
8596;SDS011;4336;49.310;8.646;2022-11-06T04:07:39;12.03;;;8.80;;
8596;SDS011;4336;49.310;8.646;2022-11-06T04:10:08;11.63;;;8.30;;
8596;SDS011;4336;49.310;8.646;2022-11-06T04:12:54;10.27;;;8.20;;
8596;SDS011;4336;49.310;8.646;2022-11-06T04:15:48;11.13;;;8.40;;
8596;SDS011;4336;49.310;8.646;2022-11-06T04:18:17;13.00;;;8.30;;
8596;SDS011;4336;49.310;8.646;2022-11-06T04:21:29;12.57;;;8.20;;
8596;SDS011;4336;49.310;8.646;2022-11-06T04:27:00;10.43;;;8.13;;
8596;SDS011;4336;49.310;8.646;2022-11-06T04:37:08;17.77;;;9.03;;
8596;SDS011;4336;49.310;8.646;2022-11-06T04:39:50;10.37;;;8.23;;
8596;SDS011;4336;49.310;8.646;2022-11-06T04:44:51;11.60;;;8.17;;
8596;SDS011;4336;49.310;8.646;2022-11-06T04:47:19;8.73;;;7.53;;
8596;SDS011;4336;49.310;8.646;2022-11-06T04:49:46;11.97;;;8.23;;
8596;SDS011;4336;49.310;8.646;2022-11-06T04:52:20;10.37;;;8.30;;
8596;SDS011;4336;49.310;8.646;2022-11-06T04:54:47;11.87;;;8.80;;
8596;SDS011;4336;49.310;8.646;2022-11-06T04:57:14;10.20;;;8.77;;
8596;SDS011;4336;49.310;8.646;2022-11-06T04:59:40;11.53;;;9.43;;
8596;SDS011;4336;49.310;8.646;2022-11-06T05:02:06;9.93;;;7.97;;
8596;SDS011;4336;49.310;8.646;2022-11-06T05:04:33;9.70;;;8.03;;
8596;SDS011;4336;49.310;8.646;2022-11-06T05:06:59;11.87;;;8.97;;
8596;SDS011;4336;49.310;8.646;2022-11-06T05:09:25;11.10;;;8.60;;
8596;SDS011;4336;49.310;8.646;2022-11-06T05:11:50;13.27;;;8.97;;
8596;SDS011;4336;49.310;8.646;2022-11-06T05:14:17;11.03;;;8.60;;
8596;SDS011;4336;49.310;8.646;2022-11-06T05:16:43;11.00;;;8.33;;
8596;SDS011;4336;49.310;8.646;2022-11-06T05:19:09;10.83;;;8.37;;
8596;SDS011;4336;49.310;8.646;2022-11-06T05:21:35;10.50;;;7.97;;
8596;SDS011;4336;49.310;8.646;2022-11-06T05:24:20;13.10;;;8.97;;
8596;SDS011;4336;49.310;8.646;2022-11-06T05:26:46;10.20;;;8.73;;
8596;SDS011;4336;49.310;8.646;2022-11-06T05:29:12;11.43;;;9.43;;
8596;SDS011;4336;49.310;8.646;2022-11-06T05:31:38;11.47;;;9.10;;
8596;SDS011;4336;49.310;8.646;2022-11-06T05:34:05;10.33;;;8.57;;
8596;SDS011;4336;49.310;8.646;2022-11-06T05:36:31;12.40;;;9.50;;
8596;SDS011;4336;49.310;8.646;2022-11-06T05:38:57;12.23;;;9.23;;
8596;SDS011;4336;49.310;8.646;2022-11-06T05:41:23;12.77;;;8.67;;
8596;SDS011;4336;49.310;8.646;2022-11-06T05:43:49;13.83;;;9.90;;
8596;SDS011;4336;49.310;8.646;2022-11-06T05:46:15;11.33;;;9.43;;
8596;SDS011;4336;49.310;8.646;2022-11-06T05:48:41;9.03;;;8.13;;
8596;SDS011;4336;49.310;8.646;2022-11-06T05:51:08;10.27;;;8.87;;
8596;SDS011;4336;49.310;8.646;2022-11-06T05:53:34;10.83;;;8.77;;
8596;SDS011;4336;49.310;8.646;2022-11-06T05:56:02;11.57;;;9.13;;
8596;SDS011;4336;49.310;8.646;2022-11-06T05:58:28;12.47;;;9.73;;
8596;SDS011;4336;49.310;8.646;2022-11-06T06:00:54;13.47;;;9.13;;
8596;SDS011;4336;49.310;8.646;2022-11-06T06:03:21;16.13;;;9.00;;
8596;SDS011;4336;49.310;8.646;2022-11-06T06:05:47;11.23;;;9.30;;
8596;SDS011;4336;49.310;8.646;2022-11-06T06:08:13;12.90;;;10.23;;
8596;SDS011;4336;49.310;8.646;2022-11-06T06:10:40;13.17;;;9.87;;
8596;SDS011;4336;49.310;8.646;2022-11-06T06:13:06;15.07;;;9.53;;
8596;SDS011;4336;49.310;8.646;2022-11-06T06:15:32;14.57;;;9.60;;
8596;SDS011;4336;49.310;8.646;2022-11-06T06:17:58;14.10;;;10.70;;
8596;SDS011;4336;49.310;8.646;2022-11-06T06:20:24;13.20;;;10.07;;
8596;SDS011;4336;49.310;8.646;2022-11-06T06:22:57;16.33;;;9.80;;
8596;SDS011;4336;49.310;8.646;2022-11-06T06:25:23;12.07;;;9.87;;
8596;SDS011;4336;49.310;8.646;2022-11-06T06:27:50;14.93;;;9.57;;
8596;SDS011;4336;49.310;8.646;2022-11-06T06:30:17;14.20;;;10.10;;
8596;SDS011;4336;49.310;8.646;2022-11-06T06:32:43;11.20;;;9.57;;
8596;SDS011;4336;49.310;8.646;2022-11-06T06:35:09;16.43;;;10.33;;
8596;SDS011;4336;49.310;8.646;2022-11-06T06:37:36;13.73;;;10.43;;
8596;SDS011;4336;49.310;8.646;2022-11-06T06:40:02;12.87;;;9.70;;
8596;SDS011;4336;49.310;8.646;2022-11-06T06:42:28;13.87;;;10.30;;
8596;SDS011;4336;49.310;8.646;2022-11-06T06:44:55;12.20;;;8.93;;
8596;SDS011;4336;49.310;8.646;2022-11-06T06:47:21;10.57;;;8.77;;
8596;SDS011;4336;49.310;8.646;2022-11-06T06:49:47;13.37;;;9.67;;
8596;SDS011;4336;49.310;8.646;2022-11-06T06:52:13;9.83;;;8.50;;
8596;SDS011;4336;49.310;8.646;2022-11-06T06:54:40;11.97;;;8.97;;
8596;SDS011;4336;49.310;8.646;2022-11-06T06:57:06;10.67;;;8.47;;
8596;SDS011;4336;49.310;8.646;2022-11-06T06:59:33;10.97;;;8.80;;
8596;SDS011;4336;49.310;8.646;2022-11-06T07:01:59;10.97;;;8.90;;
8596;SDS011;4336;49.310;8.646;2022-11-06T07:04:25;12.33;;;9.10;;
8596;SDS011;4336;49.310;8.646;2022-11-06T07:06:54;11.57;;;8.77;;
8596;SDS011;4336;49.310;8.646;2022-11-06T07:09:21;14.17;;;9.40;;
8596;SDS011;4336;49.310;8.646;2022-11-06T07:11:48;11.83;;;8.70;;
8596;SDS011;4336;49.310;8.646;2022-11-06T07:14:14;11.33;;;9.37;;
8596;SDS011;4336;49.310;8.646;2022-11-06T07:16:40;12.27;;;8.63;;
8596;SDS011;4336;49.310;8.646;2022-11-06T07:19:06;14.83;;;10.33;;
8596;SDS011;4336;49.310;8.646;2022-11-06T07:21:32;10.23;;;8.03;;
8596;SDS011;4336;49.310;8.646;2022-11-06T07:23:58;12.17;;;9.17;;
8596;SDS011;4336;49.310;8.646;2022-11-06T07:26:24;11.53;;;9.40;;
8596;SDS011;4336;49.310;8.646;2022-11-06T07:28:51;12.30;;;9.20;;
8596;SDS011;4336;49.310;8.646;2022-11-06T07:31:17;10.37;;;8.90;;
8596;SDS011;4336;49.310;8.646;2022-11-06T07:33:43;12.00;;;9.20;;
8596;SDS011;4336;49.310;8.646;2022-11-06T07:36:10;9.50;;;7.73;;
8596;SDS011;4336;49.310;8.646;2022-11-06T07:38:37;11.40;;;9.00;;
8596;SDS011;4336;49.310;8.646;2022-11-06T07:41:04;9.53;;;7.90;;
8596;SDS011;4336;49.310;8.646;2022-11-06T07:43:31;9.77;;;8.17;;
8596;SDS011;4336;49.310;8.646;2022-11-06T07:45:58;10.17;;;8.07;;
8596;SDS011;4336;49.310;8.646;2022-11-06T07:48:25;10.40;;;8.47;;
8596;SDS011;4336;49.310;8.646;2022-11-06T07:50:51;9.40;;;8.03;;
8596;SDS011;4336;49.310;8.646;2022-11-06T07:53:17;9.00;;;7.70;;
8596;SDS011;4336;49.310;8.646;2022-11-06T07:55:46;8.43;;;7.57;;
8596;SDS011;4336;49.310;8.646;2022-11-06T07:58:13;9.80;;;8.80;;
8596;SDS011;4336;49.310;8.646;2022-11-06T08:00:39;8.93;;;7.37;;
8596;SDS011;4336;49.310;8.646;2022-11-06T08:03:06;9.37;;;7.97;;
8596;SDS011;4336;49.310;8.646;2022-11-06T08:05:32;8.40;;;7.53;;
8596;SDS011;4336;49.310;8.646;2022-11-06T08:07:58;8.17;;;7.37;;
8596;SDS011;4336;49.310;8.646;2022-11-06T08:10:24;9.37;;;7.97;;
8596;SDS011;4336;49.310;8.646;2022-11-06T08:12:50;7.57;;;6.73;;
8596;SDS011;4336;49.310;8.646;2022-11-06T08:15:16;8.13;;;7.33;;
8596;SDS011;4336;49.310;8.646;2022-11-06T08:17:42;7.77;;;7.07;;
8596;SDS011;4336;49.310;8.646;2022-11-06T08:20:08;8.40;;;7.43;;
8596;SDS011;4336;49.310;8.646;2022-11-06T08:22:35;10.07;;;7.77;;
8596;SDS011;4336;49.310;8.646;2022-11-06T08:25:01;9.10;;;7.37;;
8596;SDS011;4336;49.310;8.646;2022-11-06T08:27:27;7.90;;;6.50;;
8596;SDS011;4336;49.310;8.646;2022-11-06T08:29:53;7.07;;;6.33;;
8596;SDS011;4336;49.310;8.646;2022-11-06T08:32:19;9.50;;;6.70;;
8596;SDS011;4336;49.310;8.646;2022-11-06T08:34:45;6.80;;;6.20;;
8596;SDS011;4336;49.310;8.646;2022-11-06T08:37:11;12.47;;;6.93;;
8596;SDS011;4336;49.310;8.646;2022-11-06T08:39:37;6.87;;;6.27;;
8596;SDS011;4336;49.310;8.646;2022-11-06T08:42:03;7.20;;;6.50;;
8596;SDS011;4336;49.310;8.646;2022-11-06T08:44:29;6.50;;;5.90;;
8596;SDS011;4336;49.310;8.646;2022-11-06T08:46:55;6.60;;;6.00;;
8596;SDS011;4336;49.310;8.646;2022-11-06T08:49:21;8.70;;;6.70;;
8596;SDS011;4336;49.310;8.646;2022-11-06T08:51:46;6.23;;;5.73;;
8596;SDS011;4336;49.310;8.646;2022-11-06T08:54:12;6.50;;;5.90;;
8596;SDS011;4336;49.310;8.646;2022-11-06T08:56:38;8.70;;;6.27;;
8596;SDS011;4336;49.310;8.646;2022-11-06T08:59:04;6.70;;;6.10;;
8596;SDS011;4336;49.310;8.646;2022-11-06T09:01:29;7.50;;;6.50;;
8596;SDS011;4336;49.310;8.646;2022-11-06T09:03:55;6.93;;;5.97;;
8596;SDS011;4336;49.310;8.646;2022-11-06T09:06:21;6.27;;;5.67;;
8596;SDS011;4336;49.310;8.646;2022-11-06T09:08:47;9.47;;;5.87;;
8596;SDS011;4336;49.310;8.646;2022-11-06T09:11:13;6.43;;;5.93;;
8596;SDS011;4336;49.310;8.646;2022-11-06T09:13:39;5.87;;;5.37;;
8596;SDS011;4336;49.310;8.646;2022-11-06T09:16:05;6.30;;;5.80;;
8596;SDS011;4336;49.310;8.646;2022-11-06T09:18:31;6.87;;;6.17;;
8596;SDS011;4336;49.310;8.646;2022-11-06T09:20:57;6.60;;;6.00;;
8596;SDS011;4336;49.310;8.646;2022-11-06T09:23:23;6.50;;;6.00;;
8596;SDS011;4336;49.310;8.646;2022-11-06T09:25:49;6.10;;;5.60;;
8596;SDS011;4336;49.310;8.646;2022-11-06T09:28:14;6.70;;;6.00;;
8596;SDS011;4336;49.310;8.646;2022-11-06T09:30:41;6.50;;;5.90;;
8596;SDS011;4336;49.310;8.646;2022-11-06T09:33:06;6.13;;;5.63;;
8596;SDS011;4336;49.310;8.646;2022-11-06T09:35:33;5.53;;;5.03;;
8596;SDS011;4336;49.310;8.646;2022-11-06T09:38:03;5.60;;;5.20;;
8596;SDS011;4336;49.310;8.646;2022-11-06T09:40:36;5.57;;;5.10;;
8596;SDS011;4336;49.310;8.646;2022-11-06T09:43:16;5.87;;;5.37;;
8596;SDS011;4336;49.310;8.646;2022-11-06T09:46:18;8.67;;;5.80;;
8596;SDS011;4336;49.310;8.646;2022-11-06T09:49:10;7.23;;;5.83;;
8596;SDS011;4336;49.310;8.646;2022-11-06T09:52:11;6.43;;;5.83;;
8596;SDS011;4336;49.310;8.646;2022-11-06T09:59:55;6.60;;;6.00;;
8596;SDS011;4336;49.310;8.646;2022-11-06T10:05:04;6.30;;;5.70;;
8596;SDS011;4336;49.310;8.646;2022-11-06T10:07:37;5.90;;;5.40;;
8596;SDS011;4336;49.310;8.646;2022-11-06T10:10:14;7.57;;;6.03;;
8596;SDS011;4336;49.310;8.646;2022-11-06T10:15:26;6.13;;;5.57;;
8596;SDS011;4336;49.310;8.646;2022-11-06T10:28:39;7.37;;;6.57;;
8596;SDS011;4336;49.310;8.646;2022-11-06T10:31:43;7.87;;;6.53;;
8596;SDS011;4336;49.310;8.646;2022-11-06T10:34:16;6.47;;;5.93;;
8596;SDS011;4336;49.310;8.646;2022-11-06T10:36:47;6.97;;;6.10;;
8596;SDS011;4336;49.310;8.646;2022-11-06T10:39:37;6.33;;;5.73;;
8596;SDS011;4336;49.310;8.646;2022-11-06T10:42:14;6.17;;;5.30;;
8596;SDS011;4336;49.310;8.646;2022-11-06T10:44:58;6.30;;;5.70;;
8596;SDS011;4336;49.310;8.646;2022-11-06T10:47:29;6.73;;;5.77;;
8596;SDS011;4336;49.310;8.646;2022-11-06T10:50:01;6.20;;;5.53;;
8596;SDS011;4336;49.310;8.646;2022-11-06T10:58:16;6.17;;;5.60;;
8596;SDS011;4336;49.310;8.646;2022-11-06T11:00:43;5.97;;;5.37;;
8596;SDS011;4336;49.310;8.646;2022-11-06T11:05:56;6.23;;;5.63;;
8596;SDS011;4336;49.310;8.646;2022-11-06T11:08:32;5.93;;;5.43;;
8596;SDS011;4336;49.310;8.646;2022-11-06T11:11:03;4.97;;;4.60;;
8596;SDS011;4336;49.310;8.646;2022-11-06T11:13:39;5.57;;;5.07;;
8596;SDS011;4336;49.310;8.646;2022-11-06T11:16:15;5.90;;;5.40;;
8596;SDS011;4336;49.310;8.646;2022-11-06T11:18:47;5.50;;;5.00;;
8596;SDS011;4336;49.310;8.646;2022-11-06T11:21:26;5.57;;;5.07;;
8596;SDS011;4336;49.310;8.646;2022-11-06T11:24:05;5.57;;;5.07;;
8596;SDS011;4336;49.310;8.646;2022-11-06T11:26:34;5.60;;;5.10;;
8596;SDS011;4336;49.310;8.646;2022-11-06T11:29:18;5.67;;;5.17;;
8596;SDS011;4336;49.310;8.646;2022-11-06T11:31:53;6.17;;;5.67;;
8596;SDS011;4336;49.310;8.646;2022-11-06T11:34:21;4.97;;;4.57;;
8596;SDS011;4336;49.310;8.646;2022-11-06T11:39:25;5.13;;;4.73;;
8596;SDS011;4336;49.310;8.646;2022-11-06T11:42:20;5.30;;;4.90;;
8596;SDS011;4336;49.310;8.646;2022-11-06T11:47:33;5.10;;;4.70;;
8596;SDS011;4336;49.310;8.646;2022-11-06T11:50:15;4.73;;;4.33;;
8596;SDS011;4336;49.310;8.646;2022-11-06T11:52:43;5.27;;;4.83;;
8596;SDS011;4336;49.310;8.646;2022-11-06T11:55:13;5.53;;;5.00;;
8596;SDS011;4336;49.310;8.646;2022-11-06T11:57:47;5.57;;;5.00;;
8596;SDS011;4336;49.310;8.646;2022-11-06T12:00:15;5.30;;;4.90;;
8596;SDS011;4336;49.310;8.646;2022-11-06T12:02:42;5.70;;;5.20;;
8596;SDS011;4336;49.310;8.646;2022-11-06T12:05:12;5.63;;;5.10;;
8596;SDS011;4336;49.310;8.646;2022-11-06T12:07:41;5.90;;;5.30;;
8596;SDS011;4336;49.310;8.646;2022-11-06T12:12:49;6.50;;;5.27;;
8596;SDS011;4336;49.310;8.646;2022-11-06T12:18:02;5.70;;;5.20;;
8596;SDS011;4336;49.310;8.646;2022-11-06T12:20:35;5.20;;;4.80;;
8596;SDS011;4336;49.310;8.646;2022-11-06T12:23:20;5.60;;;5.10;;
8596;SDS011;4336;49.310;8.646;2022-11-06T12:28:52;5.77;;;5.20;;
8596;SDS011;4336;49.310;8.646;2022-11-06T12:31:25;5.43;;;4.97;;
8596;SDS011;4336;49.310;8.646;2022-11-06T12:37:07;5.80;;;5.23;;
8596;SDS011;4336;49.310;8.646;2022-11-06T12:40:00;5.50;;;5.03;;
8596;SDS011;4336;49.310;8.646;2022-11-06T12:42:36;5.33;;;4.83;;
8596;SDS011;4336;49.310;8.646;2022-11-06T12:45:07;6.87;;;5.43;;
8596;SDS011;4336;49.310;8.646;2022-11-06T12:47:51;5.50;;;5.10;;
8596;SDS011;4336;49.310;8.646;2022-11-06T12:50:30;5.93;;;5.40;;
8596;SDS011;4336;49.310;8.646;2022-11-06T12:55:32;10.67;;;5.53;;
8596;SDS011;4336;49.310;8.646;2022-11-06T13:03:50;5.93;;;5.43;;
8596;SDS011;4336;49.310;8.646;2022-11-06T13:06:36;6.93;;;5.93;;
8596;SDS011;4336;49.310;8.646;2022-11-06T13:12:20;6.13;;;5.63;;
8596;SDS011;4336;49.310;8.646;2022-11-06T13:17:44;5.77;;;5.27;;
8596;SDS011;4336;49.310;8.646;2022-11-06T13:22:58;5.93;;;5.43;;
8596;SDS011;4336;49.310;8.646;2022-11-06T13:25:34;7.97;;;5.40;;
8596;SDS011;4336;49.310;8.646;2022-11-06T13:30:48;5.43;;;4.93;;
8596;SDS011;4336;49.310;8.646;2022-11-06T13:33:24;6.03;;;5.40;;
8596;SDS011;4336;49.310;8.646;2022-11-06T13:35:52;8.77;;;6.83;;
8596;SDS011;4336;49.310;8.646;2022-11-06T13:38:21;8.50;;;6.90;;
8596;SDS011;4336;49.310;8.646;2022-11-06T13:40:51;7.70;;;5.90;;
8596;SDS011;4336;49.310;8.646;2022-11-06T13:43:20;6.03;;;5.53;;
8596;SDS011;4336;49.310;8.646;2022-11-06T13:48:32;5.90;;;5.40;;
8596;SDS011;4336;49.310;8.646;2022-11-06T13:51:37;9.33;;;6.37;;
8596;SDS011;4336;49.310;8.646;2022-11-06T14:04:55;5.10;;;4.70;;
8596;SDS011;4336;49.310;8.646;2022-11-06T14:07:32;4.97;;;4.57;;
8596;SDS011;4336;49.310;8.646;2022-11-06T14:09:59;6.50;;;4.90;;
8596;SDS011;4336;49.310;8.646;2022-11-06T14:12:25;6.10;;;5.50;;
8596;SDS011;4336;49.310;8.646;2022-11-06T14:14:53;5.47;;;4.97;;
8596;SDS011;4336;49.310;8.646;2022-11-06T14:17:52;7.40;;;6.10;;
8596;SDS011;4336;49.310;8.646;2022-11-06T14:26:01;8.33;;;5.30;;
8596;SDS011;4336;49.310;8.646;2022-11-06T14:28:32;8.13;;;6.20;;
8596;SDS011;4336;49.310;8.646;2022-11-06T14:30:58;5.83;;;5.20;;
8596;SDS011;4336;49.310;8.646;2022-11-06T14:36:32;7.17;;;5.50;;
8596;SDS011;4336;49.310;8.646;2022-11-06T14:38:54;5.87;;;5.37;;
8596;SDS011;4336;49.310;8.646;2022-11-06T14:44:05;6.33;;;5.47;;
8596;SDS011;4336;49.310;8.646;2022-11-06T14:46:32;5.93;;;5.37;;
8596;SDS011;4336;49.310;8.646;2022-11-06T14:49:06;6.17;;;5.57;;
8596;SDS011;4336;49.310;8.646;2022-11-06T14:52:00;6.37;;;5.77;;
8596;SDS011;4336;49.310;8.646;2022-11-06T14:54:29;6.37;;;5.47;;
8596;SDS011;4336;49.310;8.646;2022-11-06T14:56:55;7.20;;;5.50;;
8596;SDS011;4336;49.310;8.646;2022-11-06T14:59:34;5.73;;;5.13;;
8596;SDS011;4336;49.310;8.646;2022-11-06T15:02:25;5.90;;;5.40;;
8596;SDS011;4336;49.310;8.646;2022-11-06T15:04:53;5.70;;;5.23;;
8596;SDS011;4336;49.310;8.646;2022-11-06T15:07:31;6.50;;;5.57;;
8596;SDS011;4336;49.310;8.646;2022-11-06T15:09:59;6.43;;;5.80;;
8596;SDS011;4336;49.310;8.646;2022-11-06T15:15:14;6.13;;;5.63;;
8596;SDS011;4336;49.310;8.646;2022-11-06T15:17:41;5.97;;;5.47;;
8596;SDS011;4336;49.310;8.646;2022-11-06T15:20:17;6.83;;;6.23;;
8596;SDS011;4336;49.310;8.646;2022-11-06T15:22:52;7.53;;;5.97;;
8596;SDS011;4336;49.310;8.646;2022-11-06T15:25:22;6.33;;;5.73;;
8596;SDS011;4336;49.310;8.646;2022-11-06T15:27:59;6.73;;;6.10;;
8596;SDS011;4336;49.310;8.646;2022-11-06T15:30:28;13.13;;;6.90;;
8596;SDS011;4336;49.310;8.646;2022-11-06T15:32:56;8.43;;;7.23;;
8596;SDS011;4336;49.310;8.646;2022-11-06T15:35:25;8.83;;;7.57;;
8596;SDS011;4336;49.310;8.646;2022-11-06T15:37:55;10.93;;;8.70;;
8596;SDS011;4336;49.310;8.646;2022-11-06T15:40:26;9.07;;;7.47;;
8596;SDS011;4336;49.310;8.646;2022-11-06T15:42:54;7.43;;;6.70;;
8596;SDS011;4336;49.310;8.646;2022-11-06T15:45:24;10.27;;;6.80;;
8596;SDS011;4336;49.310;8.646;2022-11-06T15:48:00;6.10;;;5.60;;
8596;SDS011;4336;49.310;8.646;2022-11-06T15:50:31;6.23;;;5.63;;
8596;SDS011;4336;49.310;8.646;2022-11-06T15:55:40;7.17;;;5.97;;
8596;SDS011;4336;49.310;8.646;2022-11-06T15:58:12;7.10;;;6.30;;
8596;SDS011;4336;49.310;8.646;2022-11-06T16:00:47;7.13;;;6.33;;
8596;SDS011;4336;49.310;8.646;2022-11-06T16:03:14;13.73;;;6.53;;
8596;SDS011;4336;49.310;8.646;2022-11-06T16:05:40;6.50;;;5.90;;
8596;SDS011;4336;49.310;8.646;2022-11-06T16:08:10;6.80;;;6.20;;
8596;SDS011;4336;49.310;8.646;2022-11-06T16:10:36;7.50;;;6.80;;
8596;SDS011;4336;49.310;8.646;2022-11-06T16:13:03;6.83;;;5.90;;
8596;SDS011;4336;49.310;8.646;2022-11-06T16:18:20;9.20;;;5.53;;
8596;SDS011;4336;49.310;8.646;2022-11-06T16:20:57;5.03;;;4.63;;
8596;SDS011;4336;49.310;8.646;2022-11-06T16:23:47;5.97;;;5.30;;
8596;SDS011;4336;49.310;8.646;2022-11-06T16:29:01;5.67;;;5.17;;
8596;SDS011;4336;49.310;8.646;2022-11-06T16:31:40;5.80;;;5.30;;
8596;SDS011;4336;49.310;8.646;2022-11-06T16:39:48;5.57;;;5.13;;
8596;SDS011;4336;49.310;8.646;2022-11-06T16:42:27;5.87;;;5.40;;
8596;SDS011;4336;49.310;8.646;2022-11-06T16:47:38;21.43;;;14.97;;
8596;SDS011;4336;49.310;8.646;2022-11-06T16:50:15;8.20;;;7.40;;
8596;SDS011;4336;49.310;8.646;2022-11-06T16:52:51;47.33;;;8.53;;
8596;SDS011;4336;49.310;8.646;2022-11-06T16:55:22;11.50;;;8.83;;
8596;SDS011;4336;49.310;8.646;2022-11-06T16:57:53;7.23;;;6.50;;
8596;SDS011;4336;49.310;8.646;2022-11-06T17:02:48;6.70;;;6.00;;
8596;SDS011;4336;49.310;8.646;2022-11-06T17:05:19;7.23;;;6.53;;
8596;SDS011;4336;49.310;8.646;2022-11-06T17:07:46;6.87;;;6.07;;
8596;SDS011;4336;49.310;8.646;2022-11-06T17:12:50;7.87;;;5.53;;
8596;SDS011;4336;49.310;8.646;2022-11-06T17:15:17;6.73;;;5.60;;
8596;SDS011;4336;49.310;8.646;2022-11-06T17:17:43;7.67;;;6.83;;
8596;SDS011;4336;49.310;8.646;2022-11-06T17:20:17;10.93;;;7.73;;
8596;SDS011;4336;49.310;8.646;2022-11-06T17:22:44;13.63;;;8.80;;
8596;SDS011;4336;49.310;8.646;2022-11-06T17:25:10;8.20;;;7.40;;
8596;SDS011;4336;49.310;8.646;2022-11-06T17:27:36;7.73;;;6.80;;
8596;SDS011;4336;49.310;8.646;2022-11-06T17:30:03;9.33;;;6.90;;
8596;SDS011;4336;49.310;8.646;2022-11-06T17:32:29;9.57;;;8.00;;
8596;SDS011;4336;49.310;8.646;2022-11-06T17:34:55;8.90;;;7.47;;
8596;SDS011;4336;49.310;8.646;2022-11-06T17:37:21;15.23;;;8.67;;
8596;SDS011;4336;49.310;8.646;2022-11-06T17:39:47;11.50;;;7.50;;
8596;SDS011;4336;49.310;8.646;2022-11-06T17:42:13;14.90;;;11.87;;
8596;SDS011;4336;49.310;8.646;2022-11-06T17:44:39;10.73;;;9.03;;
8596;SDS011;4336;49.310;8.646;2022-11-06T17:47:05;10.70;;;8.30;;
8596;SDS011;4336;49.310;8.646;2022-11-06T17:49:32;11.90;;;9.83;;
8596;SDS011;4336;49.310;8.646;2022-11-06T17:51:58;12.00;;;10.27;;